createdAt,value
2022-08-05T00:01:36.090Z,25.71
2022-08-05T00:04:16.513Z,25.52
2022-08-05T00:06:43.687Z,25.40
2022-08-05T00:09:12.685Z,25.40
2022-08-05T00:11:48.343Z,25.51
2022-08-05T00:14:17.393Z,25.40
2022-08-05T00:16:52.836Z,25.97
2022-08-05T00:19:24.862Z,25.71
2022-08-05T00:22:00.582Z,25.80
2022-08-05T00:24:30.888Z,26.21
2022-08-05T00:26:59.066Z,25.45
2022-08-05T00:29:27.628Z,26.35
2022-08-05T00:32:13.530Z,25.84
2022-08-05T00:35:04.018Z,26.31
2022-08-05T00:37:51.176Z,26.61
2022-08-05T00:40:28.190Z,26.24
2022-08-05T00:42:57.234Z,26.34
2022-08-05T00:45:28.171Z,25.84
2022-08-05T00:48:16.710Z,26.24
2022-08-05T00:50:46.057Z,26.33
2022-08-05T00:53:59.959Z,26.12
2022-08-05T00:56:07.962Z,26.19
2022-08-05T00:58:35.429Z,25.64
2022-08-05T01:01:05.898Z,25.38
2022-08-05T01:03:37.513Z,25.52
2022-08-05T01:06:05.574Z,25.48
2022-08-05T01:08:42.935Z,25.16
2022-08-05T01:11:13.638Z,24.91
2022-08-05T01:13:58.335Z,25.07
2022-08-05T01:16:33.008Z,25.25
2022-08-05T01:19:01.871Z,25.63
2022-08-05T01:21:38.243Z,25.66
2022-08-05T01:24:13.221Z,25.70
2022-08-05T01:26:48.513Z,25.89
2022-08-05T01:29:25.427Z,25.62
2022-08-05T01:31:54.513Z,25.63
2022-08-05T01:34:30.931Z,25.62
2022-08-05T01:37:06.356Z,25.40
2022-08-05T01:39:47.130Z,26.42
2022-08-05T01:42:16.658Z,25.78
2022-08-05T01:44:44.118Z,25.87
2022-08-05T01:47:12.920Z,25.50
2022-08-05T01:50:02.106Z,25.10
2022-08-05T01:52:28.667Z,25.03
2022-08-05T01:54:58.304Z,25.18
2022-08-05T01:58:29.496Z,25.27
2022-08-05T02:00:30.356Z,25.09
2022-08-05T02:02:59.546Z,25.04
2022-08-05T02:05:34.340Z,25.02
2022-08-05T02:08:03.665Z,25.24
2022-08-05T02:10:42.156Z,25.23
2022-08-05T02:13:16.157Z,25.47
2022-08-05T02:15:50.803Z,25.75
2022-08-05T02:18:33.210Z,25.83
2022-08-05T02:21:05.752Z,25.78
2022-08-05T02:23:41.477Z,25.70
2022-08-05T02:26:09.668Z,25.64
2022-08-05T02:28:41.673Z,25.72
2022-08-05T02:31:23.658Z,25.77
2022-08-05T02:33:57.808Z,25.67
2022-08-05T02:36:27.596Z,25.69
2022-08-05T02:38:55.376Z,25.62
2022-08-05T02:41:28.417Z,25.58
2022-08-05T02:44:02.726Z,25.59
2022-08-05T02:46:53.595Z,25.42
2022-08-05T02:49:27.645Z,25.71
2022-08-05T02:52:13.581Z,25.80
2022-08-05T02:54:57.927Z,26.01
2022-08-05T02:58:11.667Z,25.77
2022-08-05T03:00:16.531Z,25.87
2022-08-05T03:02:44.696Z,25.55
2022-08-05T03:05:12.033Z,25.79
2022-08-05T03:08:01.213Z,25.91
2022-08-05T03:10:27.390Z,25.88
2022-08-05T03:12:55.178Z,26.07
2022-08-05T03:15:23.270Z,25.82
2022-08-05T03:17:56.030Z,26.32
2022-08-05T03:20:25.225Z,26.22
2022-08-05T03:22:52.827Z,26.08
2022-08-05T03:25:33.586Z,26.16
2022-08-05T03:28:08.516Z,26.27
2022-08-05T03:30:35.924Z,26.27
2022-08-05T03:33:03.940Z,26.24
2022-08-05T03:35:34.031Z,26.56
2022-08-05T03:38:10.964Z,26.29
2022-08-05T03:40:45.327Z,26.29
2022-08-05T03:43:58.840Z,26.11
2022-08-05T03:46:02.528Z,26.18
2022-08-05T03:48:30.027Z,26.17
2022-08-05T03:52:37.774Z,26.16
2022-08-05T03:55:54.685Z,26.46
2022-08-05T03:56:43.477Z,26.52
2022-08-05T03:59:15.171Z,26.68
2022-08-05T04:01:48.508Z,27.13
2022-08-05T04:04:16.867Z,26.88
2022-08-05T04:06:51.174Z,26.99
2022-08-05T04:09:25.918Z,26.86
2022-08-05T04:11:56.851Z,27.06
2022-08-05T04:14:30.462Z,27.06
2022-08-05T04:17:02.977Z,27.41
2022-08-05T04:19:30.676Z,27.14
2022-08-05T04:22:09.132Z,26.92
2022-08-05T04:24:43.865Z,26.68
2022-08-05T04:27:15.284Z,26.34
2022-08-05T04:29:42.872Z,26.28
2022-08-05T04:32:10.268Z,26.22
2022-08-05T04:34:42.660Z,24.46
2022-08-05T04:37:10.990Z,24.43
2022-08-05T04:39:39.139Z,23.79
2022-08-05T04:42:07.445Z,23.54
2022-08-05T04:44:36.507Z,23.79
2022-08-05T04:47:09.400Z,23.38
2022-08-05T04:50:01.848Z,23.75
2022-08-05T04:52:27.696Z,25.25
2022-08-05T04:54:57.419Z,24.75
2022-08-05T04:57:28.729Z,25.09
2022-08-05T04:59:58.660Z,25.27
2022-08-05T05:02:36.282Z,26.20
2022-08-05T05:05:16.563Z,25.64
2022-08-05T05:07:56.663Z,25.47
2022-08-05T05:10:29.553Z,25.62
2022-08-05T05:12:57.718Z,24.81
2022-08-05T05:15:56.252Z,23.91
2022-08-05T05:18:14.924Z,24.83
2022-08-05T05:20:55.725Z,25.80
2022-08-05T05:23:25.780Z,25.85
2022-08-05T05:25:52.926Z,25.82
2022-08-05T05:28:20.122Z,25.27
2022-08-05T05:30:49.567Z,25.26
2022-08-05T05:33:23.434Z,25.60
2022-08-05T05:35:51.031Z,24.37
2022-08-05T05:38:26.965Z,24.47
2022-08-05T05:40:55.891Z,24.40
2022-08-05T05:43:56.536Z,25.09
2022-08-05T05:46:16.325Z,24.09
2022-08-05T05:48:47.729Z,24.97
2022-08-05T05:51:22.630Z,24.51
2022-08-05T05:53:57.239Z,23.26
2022-08-05T05:56:32.708Z,22.71
2022-08-05T05:59:05.407Z,23.06
2022-08-05T06:01:38.912Z,24.05
2022-08-05T06:04:08.305Z,23.58
2022-08-05T06:06:41.821Z,22.63
2022-08-05T06:09:09.542Z,23.12
2022-08-05T06:11:59.527Z,23.54
2022-08-05T06:14:33.253Z,22.64
2022-08-05T06:17:22.608Z,23.50
2022-08-05T06:19:57.190Z,23.38
2022-08-05T06:22:30.406Z,22.24
2022-08-05T06:25:01.882Z,22.33
2022-08-05T06:28:10.411Z,22.76
2022-08-05T06:30:36.419Z,21.94
2022-08-05T06:33:03.607Z,21.92
2022-08-05T06:36:07.160Z,21.03
2022-08-05T06:38:18.694Z,20.69
2022-08-05T06:41:04.411Z,20.57
2022-08-05T06:43:51.769Z,20.25
2022-08-05T06:46:19.130Z,20.12
2022-08-05T06:48:56.557Z,20.68
2022-08-05T06:51:30.263Z,21.36
2022-08-05T06:53:59.019Z,21.98
2022-08-05T06:56:27.107Z,21.26
2022-08-05T06:58:54.753Z,21.37
2022-08-05T07:01:22.821Z,21.11
2022-08-05T07:03:50.154Z,21.46
2022-08-05T07:06:20.615Z,21.10
2022-08-05T07:08:51.778Z,20.90
2022-08-05T07:11:25.350Z,21.86
2022-08-05T07:14:15.588Z,22.83
2022-08-05T07:18:00.755Z,22.80
2022-08-05T07:20:16.857Z,21.23
2022-08-05T07:22:29.188Z,20.74
2022-08-05T07:24:58.528Z,20.13
2022-08-05T07:27:27.575Z,20.60
2022-08-05T07:30:27.725Z,20.10
2022-08-05T07:32:57.717Z,21.36
2022-08-05T07:36:03.520Z,20.70
2022-08-05T07:38:26.337Z,20.64
2022-08-05T07:41:16.784Z,20.77
2022-08-05T07:43:46.941Z,21.19
2022-08-05T07:46:24.274Z,21.74
2022-08-05T07:49:03.505Z,21.13
2022-08-05T07:51:41.130Z,20.58
2022-08-05T07:54:26.413Z,20.19
2022-08-05T07:57:13.312Z,21.47
2022-08-05T07:59:41.517Z,21.37
2022-08-05T08:02:15.958Z,21.58
2022-08-05T08:04:48.556Z,21.28
2022-08-05T08:07:17.871Z,20.78
2022-08-05T08:09:46.074Z,19.91
2022-08-05T08:12:33.267Z,20.84
2022-08-05T08:15:04.531Z,20.69
2022-08-05T08:17:32.441Z,21.01
2022-08-05T08:20:22.413Z,20.79
2022-08-05T08:22:54.234Z,19.79
2022-08-05T08:25:26.875Z,21.01
2022-08-05T08:28:18.044Z,21.02
2022-08-05T08:30:47.807Z,21.06
2022-08-05T08:33:17.622Z,21.01
2022-08-05T08:35:52.817Z,20.86
2022-08-05T08:38:35.363Z,20.59
2022-08-05T08:41:05.070Z,20.69
2022-08-05T08:45:16.431Z,20.94
2022-08-05T08:46:21.340Z,20.44
2022-08-05T08:49:06.329Z,19.79
2022-08-05T08:52:04.247Z,19.08
2022-08-05T08:54:27.395Z,18.74
2022-08-05T08:56:56.425Z,18.57
2022-08-05T08:59:27.904Z,18.74
2022-08-05T09:02:02.112Z,19.04
2022-08-05T09:04:31.578Z,19.94
2022-08-05T09:06:58.891Z,19.26
2022-08-05T09:09:34.861Z,19.42
2022-08-05T09:12:20.228Z,19.97
2022-08-05T09:14:58.275Z,18.22
2022-08-05T09:17:40.698Z,18.94
2022-08-05T09:20:11.158Z,19.90
2022-08-05T09:23:04.855Z,20.27
2022-08-05T09:26:00.854Z,19.89
2022-08-05T09:28:23.394Z,19.43
2022-08-05T09:30:55.171Z,18.39
2022-08-05T09:33:23.648Z,18.35
2022-08-05T09:36:11.841Z,18.84
2022-08-05T09:38:56.252Z,19.33
2022-08-05T09:41:24.717Z,18.66
2022-08-05T09:43:53.214Z,19.99
2022-08-05T09:46:27.457Z,18.76
2022-08-05T09:49:08.024Z,20.20
2022-08-05T09:51:49.385Z,19.29
2022-08-05T09:54:21.350Z,19.64
2022-08-05T09:56:57.349Z,19.39
2022-08-05T09:59:27.569Z,19.83
2022-08-05T10:01:58.530Z,18.95
2022-08-05T10:04:34.954Z,18.38
2022-08-05T10:07:06.073Z,17.81
2022-08-05T10:10:14.460Z,17.41
2022-08-05T10:12:49.731Z,17.40
2022-08-05T10:15:20.374Z,17.50
2022-08-05T10:18:03.491Z,17.11
2022-08-05T10:20:32.004Z,17.50
2022-08-05T10:23:01.053Z,16.78
2022-08-05T10:25:28.352Z,17.23
2022-08-05T10:28:13.936Z,17.91
2022-08-05T10:32:47.342Z,16.35
2022-08-05T10:33:35.150Z,16.58
2022-08-05T10:36:04.502Z,16.14
2022-08-05T10:38:33.334Z,15.81
2022-08-05T10:41:06.943Z,15.92
2022-08-05T10:43:47.393Z,15.25
2022-08-05T10:46:17.030Z,16.88
2022-08-05T10:48:52.762Z,16.27
2022-08-05T10:51:29.404Z,15.73
2022-08-05T10:53:58.505Z,16.17
2022-08-05T10:56:29.595Z,15.82
2022-08-05T10:59:07.303Z,16.44
2022-08-05T11:01:54.750Z,16.76
2022-08-05T11:04:30.920Z,15.76
2022-08-05T11:07:04.478Z,15.38
2022-08-05T11:09:45.770Z,16.18
2022-08-05T11:12:27.126Z,15.88
2022-08-05T11:15:20.222Z,15.58
2022-08-05T11:17:59.261Z,15.90
2022-08-05T11:20:39.286Z,15.66
2022-08-05T11:23:33.273Z,15.90
2022-08-05T11:26:11.921Z,15.93
2022-08-05T11:28:39.807Z,15.88
2022-08-05T11:31:07.684Z,15.67
2022-08-05T11:33:47.951Z,15.87
2022-08-05T11:36:34.723Z,16.48
2022-08-05T11:39:05.715Z,15.84
2022-08-05T11:41:54.641Z,16.82
2022-08-05T11:44:40.123Z,16.93
2022-08-05T11:47:14.186Z,16.21
2022-08-05T11:49:51.162Z,15.89
2022-08-05T11:52:29.386Z,15.77
2022-08-05T11:54:57.723Z,16.38
2022-08-05T11:57:30.708Z,15.66
2022-08-05T12:00:13.316Z,15.75
2022-08-05T12:02:40.493Z,15.39
2022-08-05T12:05:32.388Z,16.01
2022-08-05T12:08:09.770Z,15.79
2022-08-05T12:10:45.826Z,15.08
2022-08-05T12:13:28.091Z,16.12
2022-08-05T12:16:14.558Z,16.27
2022-08-05T12:18:49.477Z,15.96
2022-08-05T12:21:30.196Z,15.41
2022-08-05T12:24:04.877Z,15.40
2022-08-05T12:26:38.738Z,14.81
2022-08-05T12:29:09.539Z,15.10
2022-08-05T12:31:45.978Z,15.09
2022-08-05T12:34:21.382Z,14.85
2022-08-05T12:36:52.242Z,14.29
2022-08-05T12:39:19.552Z,14.45
2022-08-05T12:41:46.803Z,15.54
2022-08-05T12:44:21.563Z,15.92
2022-08-05T12:46:59.741Z,15.72
2022-08-05T12:50:03.936Z,15.34
2022-08-05T12:52:33.893Z,15.46
2022-08-05T12:55:23.625Z,15.28
2022-08-05T12:58:49.310Z,15.95
2022-08-05T13:01:59.948Z,16.42
2022-08-05T13:03:32.463Z,14.74
2022-08-05T13:06:01.486Z,14.23
2022-08-05T13:08:32.997Z,15.83
2022-08-05T13:11:01.125Z,14.95
2022-08-05T13:14:04.929Z,14.57
2022-08-05T13:16:17.092Z,14.14
2022-08-05T13:18:50.898Z,14.36
2022-08-05T13:21:18.336Z,15.24
2022-08-05T13:23:52.145Z,15.05
2022-08-05T13:26:24.079Z,15.39
2022-08-05T13:28:57.603Z,15.16
2022-08-05T13:31:33.714Z,15.69
2022-08-05T13:34:21.583Z,14.64
2022-08-05T13:36:51.113Z,15.22
2022-08-05T13:40:14.661Z,15.26
2022-08-05T13:42:05.932Z,15.07
2022-08-05T13:44:34.735Z,15.98
2022-08-05T13:47:08.403Z,14.56
2022-08-05T13:49:36.416Z,14.50
2022-08-05T13:52:10.609Z,14.36
2022-08-05T13:54:38.537Z,15.24
2022-08-05T13:57:06.975Z,14.70
2022-08-05T13:59:34.448Z,14.67
2022-08-05T14:02:03.645Z,14.70
2022-08-05T14:04:51.619Z,14.85
2022-08-05T14:07:59.920Z,14.25
2022-08-05T14:10:19.270Z,14.29
2022-08-05T14:12:55.462Z,14.75
2022-08-05T14:16:08.193Z,13.94
2022-08-05T14:18:17.591Z,14.96
2022-08-05T14:20:47.910Z,15.09
2022-08-05T14:23:24.076Z,14.93
2022-08-05T14:25:54.552Z,14.73
2022-08-05T14:28:26.501Z,14.69
2022-08-05T14:30:55.023Z,14.93
2022-08-05T14:33:23.343Z,15.38
2022-08-05T14:35:51.980Z,14.98
2022-08-05T14:38:32.979Z,16.24
2022-08-05T14:41:06.186Z,15.94
2022-08-05T14:43:51.593Z,15.04
2022-08-05T14:46:28.789Z,15.32
2022-08-05T14:48:57.774Z,14.87
2022-08-05T14:51:30.658Z,14.05
2022-08-05T14:54:06.925Z,14.36
2022-08-05T14:56:46.968Z,14.44
2022-08-05T14:59:15.909Z,13.99
2022-08-05T15:01:49.209Z,15.22
2022-08-05T15:04:20.735Z,14.41
2022-08-05T15:06:52.915Z,14.02
2022-08-05T15:09:51.890Z,14.54
2022-08-05T15:12:08.893Z,14.40
2022-08-05T15:14:48.266Z,14.08
2022-08-05T15:17:46.405Z,14.08
2022-08-05T15:20:06.102Z,13.77
2022-08-05T15:22:33.259Z,14.07
2022-08-05T15:25:00.700Z,13.50
2022-08-05T15:27:43.025Z,13.97
2022-08-05T15:30:19.334Z,14.30
2022-08-05T15:32:47.264Z,14.23
2022-08-05T15:35:17.030Z,14.50
2022-08-05T15:38:32.667Z,14.14
2022-08-05T15:41:03.432Z,13.95
2022-08-05T15:43:20.139Z,14.63
2022-08-05T15:46:00.818Z,14.20
2022-08-05T15:48:28.963Z,14.82
2022-08-05T15:50:56.584Z,14.59
2022-08-05T15:53:26.477Z,15.04
2022-08-05T15:56:09.138Z,14.38
2022-08-05T15:58:41.362Z,15.13
2022-08-05T16:01:17.134Z,14.45
2022-08-05T16:03:48.315Z,14.98
2022-08-05T16:06:16.095Z,14.68
2022-08-05T16:08:51.019Z,15.45
2022-08-05T16:11:42.900Z,15.37
2022-08-05T16:14:09.337Z,14.73
2022-08-05T16:16:36.530Z,15.31
2022-08-05T16:19:04.218Z,14.25
2022-08-05T16:22:00.277Z,16.29
2022-08-05T16:24:40.443Z,14.76
2022-08-05T16:27:07.286Z,15.33
2022-08-05T16:29:37.032Z,15.27
2022-08-05T16:32:06.409Z,14.50
2022-08-05T16:34:34.047Z,15.04
2022-08-05T16:37:01.218Z,16.13
2022-08-05T16:40:04.698Z,14.96
2022-08-05T16:42:19.450Z,14.99
2022-08-05T16:44:56.936Z,16.21
2022-08-05T16:47:29.130Z,16.27
2022-08-05T16:50:04.196Z,16.45
2022-08-05T16:52:33.501Z,16.43
2022-08-05T16:55:00.908Z,15.98
2022-08-05T16:57:53.658Z,15.97
2022-08-05T17:00:25.998Z,15.11
2022-08-05T17:03:02.938Z,15.90
2022-08-05T17:05:31.428Z,15.81
2022-08-05T17:07:59.257Z,15.97
2022-08-05T17:10:30.514Z,15.88
2022-08-05T17:12:58.411Z,15.86
2022-08-05T17:15:29.422Z,16.33
2022-08-05T17:18:14.323Z,16.73
2022-08-05T17:20:42.326Z,16.40
2022-08-05T17:24:02.953Z,16.45
2022-08-05T17:25:58.983Z,16.40
2022-08-05T17:28:26.263Z,16.55
2022-08-05T17:30:56.188Z,16.77
2022-08-05T17:33:23.729Z,16.48
2022-08-05T17:36:07.581Z,16.49
2022-08-05T17:38:37.717Z,16.44
2022-08-05T17:41:11.602Z,16.71
2022-08-05T17:43:55.709Z,16.87
2022-08-05T17:46:23.737Z,17.22
2022-08-05T17:48:50.900Z,16.85
2022-08-05T17:51:21.354Z,17.28
2022-08-05T17:53:50.701Z,17.27
2022-08-05T17:56:22.837Z,17.61
2022-08-05T17:58:51.096Z,17.32
2022-08-05T18:01:18.685Z,17.42
2022-08-05T18:03:58.444Z,17.45
2022-08-05T18:06:31.078Z,17.50
2022-08-05T18:08:58.860Z,17.53
2022-08-05T18:11:32.485Z,17.48
2022-08-05T18:14:03.547Z,17.56
2022-08-05T18:16:31.827Z,17.63
2022-08-05T18:18:58.966Z,17.60
2022-08-05T18:21:28.157Z,17.73
2022-08-05T18:24:14.447Z,17.70
2022-08-05T18:26:42.077Z,17.78
2022-08-05T18:29:11.125Z,17.80
2022-08-05T18:31:38.531Z,17.81
2022-08-05T18:34:12.247Z,17.77
2022-08-05T18:36:41.350Z,17.85
2022-08-05T18:39:42.314Z,17.75
2022-08-05T18:42:06.139Z,17.78
2022-08-05T18:44:48.963Z,17.75
2022-08-05T18:47:18.676Z,17.82
2022-08-05T18:50:10.780Z,17.78
2022-08-05T18:52:50.795Z,17.79
2022-08-05T18:55:19.524Z,18.02
2022-08-05T18:57:53.518Z,17.96
2022-08-05T19:00:28.580Z,17.93
2022-08-05T19:02:57.532Z,17.93
2022-08-05T19:06:12.566Z,18.25
2022-08-05T19:08:18.734Z,18.33
2022-08-05T19:10:46.388Z,18.08
2022-08-05T19:13:15.936Z,18.33
2022-08-05T19:15:58.876Z,18.32
2022-08-05T19:18:29.110Z,18.46
2022-08-05T19:20:56.632Z,18.54
2022-08-05T19:24:07.341Z,18.49
2022-08-05T19:26:12.136Z,18.47
2022-08-05T19:28:43.283Z,18.33
2022-08-05T19:31:13.482Z,18.60
2022-08-05T19:33:48.387Z,18.59
2022-08-05T19:36:24.185Z,18.58
2022-08-05T19:38:53.400Z,18.84
2022-08-05T19:41:21.906Z,19.12
2022-08-05T19:44:05.445Z,19.00
2022-08-05T19:46:39.382Z,18.90
2022-08-05T19:49:25.217Z,18.90
2022-08-05T19:52:06.181Z,18.80
2022-08-05T19:54:41.239Z,18.79
2022-08-05T19:57:10.137Z,19.05
2022-08-05T19:59:55.552Z,18.94
2022-08-05T20:02:27.264Z,18.99
2022-08-05T20:04:58.530Z,19.04
2022-08-05T20:07:47.157Z,19.15
2022-08-05T20:10:17.390Z,19.33
2022-08-05T20:12:48.122Z,19.48
2022-08-05T20:15:23.082Z,19.19
2022-08-05T20:18:10.532Z,19.22
2022-08-05T20:20:56.589Z,19.49
2022-08-05T20:23:40.480Z,19.43
2022-08-05T20:26:15.251Z,19.47
2022-08-05T20:28:44.217Z,19.59
2022-08-05T20:31:12.209Z,19.48
2022-08-05T20:33:42.465Z,19.53
2022-08-05T20:36:10.115Z,19.65
2022-08-05T20:38:39.221Z,19.64
2022-08-05T20:41:24.025Z,19.79
2022-08-05T20:43:58.744Z,20.41
2022-08-05T20:46:28.738Z,20.32
2022-08-05T20:48:56.156Z,20.54
2022-08-05T20:51:23.749Z,20.43
2022-08-05T20:53:56.360Z,20.45
2022-08-05T20:56:28.100Z,20.36
2022-08-05T20:58:56.245Z,20.72
2022-08-05T21:01:38.616Z,20.53
2022-08-05T21:04:10.323Z,20.52
2022-08-05T21:06:45.147Z,20.61
2022-08-05T21:09:15.987Z,20.55
2022-08-05T21:12:06.970Z,20.59
2022-08-05T21:14:34.785Z,20.64
2022-08-05T21:17:05.396Z,20.41
2022-08-05T21:19:46.898Z,20.63
2022-08-05T21:22:18.316Z,20.76
2022-08-05T21:24:49.020Z,20.83
2022-08-05T21:27:25.412Z,20.88
2022-08-05T21:29:57.660Z,21.06
2022-08-05T21:32:27.218Z,21.66
2022-08-05T21:35:08.421Z,21.11
2022-08-05T21:37:46.998Z,21.26
2022-08-05T21:40:16.565Z,21.08
2022-08-05T21:42:45.630Z,21.15
2022-08-05T21:45:17.621Z,21.06
2022-08-05T21:47:56.254Z,21.41
2022-08-05T21:50:25.495Z,21.44
2022-08-05T21:52:53.400Z,21.46
2022-08-05T21:55:42.787Z,21.59
2022-08-05T21:58:10.274Z,22.05
2022-08-05T22:00:40.031Z,22.16
2022-08-05T22:03:09.927Z,21.91
2022-08-05T22:05:48.781Z,22.26
2022-08-05T22:08:22.515Z,22.22
2022-08-05T22:10:53.538Z,22.27
2022-08-05T22:14:19.710Z,22.12
2022-08-05T22:16:32.305Z,22.43
2022-08-05T22:18:58.707Z,22.27
2022-08-05T22:21:26.129Z,22.38
2022-08-05T22:24:13.205Z,22.16
2022-08-05T22:27:18.355Z,22.50
2022-08-05T22:29:46.069Z,22.34
2022-08-05T22:32:17.361Z,22.42
2022-08-05T22:34:50.180Z,22.32
2022-08-05T22:37:17.617Z,22.54
2022-08-05T22:39:45.568Z,22.22
2022-08-05T22:42:25.274Z,22.42
2022-08-05T22:44:56.396Z,22.40
2022-08-05T22:47:29.347Z,22.29
2022-08-05T22:50:17.597Z,22.45
2022-08-05T22:52:49.028Z,22.69
2022-08-05T22:55:19.221Z,22.79
2022-08-05T22:57:49.010Z,22.96
2022-08-05T23:00:18.330Z,22.69
2022-08-05T23:02:48.555Z,22.73
2022-08-05T23:05:15.954Z,22.49
2022-08-05T23:07:44.814Z,22.34
2022-08-05T23:10:13.202Z,22.47
2022-08-05T23:12:40.423Z,22.56
2022-08-05T23:15:11.909Z,22.80
2022-08-05T23:18:00.689Z,22.58
2022-08-05T23:20:26.561Z,22.45
2022-08-05T23:22:55.821Z,22.44
2022-08-05T23:25:53.204Z,22.74
2022-08-05T23:28:11.977Z,22.60
2022-08-05T23:30:39.772Z,22.29
2022-08-05T23:33:16.347Z,22.37
2022-08-05T23:35:56.059Z,22.30
2022-08-05T23:38:26.071Z,22.21
2022-08-05T23:40:54.339Z,22.25
2022-08-05T23:43:25.350Z,22.36
2022-08-05T23:46:19.994Z,22.53
2022-08-05T23:48:59.943Z,22.80
2022-08-05T23:51:54.367Z,22.81
2022-08-05T23:54:25.247Z,22.85
2022-08-05T23:56:55.028Z,22.81
2022-08-05T23:59:22.947Z,22.79
